Terminal Aerodrome Forecast
Issued by NWS Cleveland, OH

Home | Current Version | Previous Version | Graphics & Text | Print | Product List | Glossary On
Versions: 1 2 3 4 5 6 7 8 9 10 11 12 13 14 15 16 17 18 19 20 21 22
362
FTUS41 KCLE 252335
TAFYNG
TAF
KYNG 252335Z 2600/2624 22011KT P6SM VCSH BKN070 BKN150
     FM260100 23010KT P6SM BKN070 BKN150
     FM260800 24010KT P6SM -SHRA OVC050
     FM261200 25011KT P6SM OVC030
     FM261500 31011KT P6SM OVC010
      TEMPO 2616/2619 BKN009
     FM262000 36012KT P6SM OVC015=

USA.gov is the U.S. government's official web portal to all federal, state and local government web resources and services.